sensor_id;sensor_type;location;lat;lon;timestamp;temperature;humidity
66144;SHT31;52947;50.842;6.084;2023-05-19T00:01:49;11.11;78.42
66144;SHT31;52947;50.842;6.084;2023-05-19T00:04:18;11.18;78.17
66144;SHT31;52947;50.842;6.084;2023-05-19T00:06:49;11.24;77.74
66144;SHT31;52947;50.842;6.084;2023-05-19T00:09:20;11.14;77.98
66144;SHT31;52947;50.842;6.084;2023-05-19T00:11:49;11.15;77.46
66144;SHT31;52947;50.842;6.084;2023-05-19T00:14:17;11.00;77.49
66144;SHT31;52947;50.842;6.084;2023-05-19T00:16:46;10.94;78.96
66144;SHT31;52947;50.842;6.084;2023-05-19T00:19:14;10.76;78.43
66144;SHT31;52947;50.842;6.084;2023-05-19T00:21:42;10.73;79.26
66144;SHT31;52947;50.842;6.084;2023-05-19T00:24:10;10.55;78.81
66144;SHT31;52947;50.842;6.084;2023-05-19T00:26:40;10.57;79.02
66144;SHT31;52947;50.842;6.084;2023-05-19T00:29:08;10.74;79.24
66144;SHT31;52947;50.842;6.084;2023-05-19T00:31:36;10.63;78.18
66144;SHT31;52947;50.842;6.084;2023-05-19T00:34:04;10.60;78.54
66144;SHT31;52947;50.842;6.084;2023-05-19T00:36:32;10.45;78.80
66144;SHT31;52947;50.842;6.084;2023-05-19T00:39:00;10.43;79.10
66144;SHT31;52947;50.842;6.084;2023-05-19T00:41:28;10.32;79.58
66144;SHT31;52947;50.842;6.084;2023-05-19T00:43:57;10.25;80.07
66144;SHT31;52947;50.842;6.084;2023-05-19T00:46:26;9.85;80.50
66144;SHT31;52947;50.842;6.084;2023-05-19T00:48:54;9.67;81.17
66144;SHT31;52947;50.842;6.084;2023-05-19T00:51:22;9.79;80.59
66144;SHT31;52947;50.842;6.084;2023-05-19T00:53:52;9.67;79.81
66144;SHT31;52947;50.842;6.084;2023-05-19T00:56:20;9.52;80.73
66144;SHT31;52947;50.842;6.084;2023-05-19T00:58:50;9.48;81.57
66144;SHT31;52947;50.842;6.084;2023-05-19T01:01:19;9.52;80.45
66144;SHT31;52947;50.842;6.084;2023-05-19T01:03:48;9.61;80.78
66144;SHT31;52947;50.842;6.084;2023-05-19T01:06:17;9.87;81.27
66144;SHT31;52947;50.842;6.084;2023-05-19T01:08:47;9.91;80.46
66144;SHT31;52947;50.842;6.084;2023-05-19T01:11:15;9.62;80.64
66144;SHT31;52947;50.842;6.084;2023-05-19T01:13:43;9.75;80.50
66144;SHT31;52947;50.842;6.084;2023-05-19T01:16:14;9.65;80.61
66144;SHT31;52947;50.842;6.084;2023-05-19T01:18:51;9.75;80.52
66144;SHT31;52947;50.842;6.084;2023-05-19T01:24:33;9.89;80.43
66144;SHT31;52947;50.842;6.084;2023-05-19T01:30:16;10.01;79.31
66144;SHT31;52947;50.842;6.084;2023-05-19T01:32:48;9.77;79.63
66144;SHT31;52947;50.842;6.084;2023-05-19T01:35:18;9.67;79.73
66144;SHT31;52947;50.842;6.084;2023-05-19T01:37:50;10.02;80.31
66144;SHT31;52947;50.842;6.084;2023-05-19T01:40:19;9.91;79.06
66144;SHT31;52947;50.842;6.084;2023-05-19T01:42:50;9.61;80.17
66144;SHT31;52947;50.842;6.084;2023-05-19T01:45:23;9.57;80.23
66144;SHT31;52947;50.842;6.084;2023-05-19T01:47:53;9.57;80.28
66144;SHT31;52947;50.842;6.084;2023-05-19T01:50:22;9.58;80.09
66144;SHT31;52947;50.842;6.084;2023-05-19T01:52:50;9.47;80.23
66144;SHT31;52947;50.842;6.084;2023-05-19T01:55:18;9.43;80.62
66144;SHT31;52947;50.842;6.084;2023-05-19T01:57:57;9.19;80.89
66144;SHT31;52947;50.842;6.084;2023-05-19T02:00:37;9.05;81.66
66144;SHT31;52947;50.842;6.084;2023-05-19T02:03:16;9.16;81.56
66144;SHT31;52947;50.842;6.084;2023-05-19T02:05:52;9.30;81.04
66144;SHT31;52947;50.842;6.084;2023-05-19T02:08:27;9.15;81.20
66144;SHT31;52947;50.842;6.084;2023-05-19T02:11:00;9.19;81.42
66144;SHT31;52947;50.842;6.084;2023-05-19T02:13:34;9.37;81.64
66144;SHT31;52947;50.842;6.084;2023-05-19T02:16:05;9.75;80.21
66144;SHT31;52947;50.842;6.084;2023-05-19T02:18:33;9.13;80.05
66144;SHT31;52947;50.842;6.084;2023-05-19T02:21:01;8.52;81.76
66144;SHT31;52947;50.842;6.084;2023-05-19T02:23:30;8.45;82.94
66144;SHT31;52947;50.842;6.084;2023-05-19T02:25:57;8.49;82.04
66144;SHT31;52947;50.842;6.084;2023-05-19T02:28:26;8.59;82.79
66144;SHT31;52947;50.842;6.084;2023-05-19T02:30:54;8.76;82.40
66144;SHT31;52947;50.842;6.084;2023-05-19T02:33:23;8.66;81.53
66144;SHT31;52947;50.842;6.084;2023-05-19T02:35:53;8.73;82.77
66144;SHT31;52947;50.842;6.084;2023-05-19T02:38:22;8.80;81.86
66144;SHT31;52947;50.842;6.084;2023-05-19T02:40:51;8.83;81.96
66144;SHT31;52947;50.842;6.084;2023-05-19T02:43:19;8.93;81.66
66144;SHT31;52947;50.842;6.084;2023-05-19T02:45:47;8.88;81.49
66144;SHT31;52947;50.842;6.084;2023-05-19T02:48:15;8.55;81.80
66144;SHT31;52947;50.842;6.084;2023-05-19T02:50:44;8.11;81.97
66144;SHT31;52947;50.842;6.084;2023-05-19T02:53:12;7.73;83.47
66144;SHT31;52947;50.842;6.084;2023-05-19T02:55:41;7.70;85.00
66144;SHT31;52947;50.842;6.084;2023-05-19T02:58:09;7.73;85.03
66144;SHT31;52947;50.842;6.084;2023-05-19T03:00:37;7.98;84.51
66144;SHT31;52947;50.842;6.084;2023-05-19T03:03:04;8.27;83.62
66144;SHT31;52947;50.842;6.084;2023-05-19T03:05:33;8.16;82.77
66144;SHT31;52947;50.842;6.084;2023-05-19T03:08:03;8.18;83.14
66144;SHT31;52947;50.842;6.084;2023-05-19T03:10:31;8.27;82.39
66144;SHT31;52947;50.842;6.084;2023-05-19T03:12:59;8.35;82.21
66144;SHT31;52947;50.842;6.084;2023-05-19T03:15:27;8.68;82.35
66144;SHT31;52947;50.842;6.084;2023-05-19T03:17:56;8.79;81.87
66144;SHT31;52947;50.842;6.084;2023-05-19T03:20:24;8.65;81.48
66144;SHT31;52947;50.842;6.084;2023-05-19T03:22:52;8.62;81.87
66144;SHT31;52947;50.842;6.084;2023-05-19T03:25:21;8.93;81.54
66144;SHT31;52947;50.842;6.084;2023-05-19T03:27:49;8.78;81.60
66144;SHT31;52947;50.842;6.084;2023-05-19T03:30:17;8.92;81.49
66144;SHT31;52947;50.842;6.084;2023-05-19T03:32:57;8.44;81.92
66144;SHT31;52947;50.842;6.084;2023-05-19T03:35:27;8.21;82.00
66144;SHT31;52947;50.842;6.084;2023-05-19T03:37:55;8.37;82.22
66144;SHT31;52947;50.842;6.084;2023-05-19T03:40:26;8.10;82.44
66144;SHT31;52947;50.842;6.084;2023-05-19T03:43:01;8.06;82.55
66144;SHT31;52947;50.842;6.084;2023-05-19T03:45:31;7.97;82.93
66144;SHT31;52947;50.842;6.084;2023-05-19T03:48:10;8.20;83.36
66144;SHT31;52947;50.842;6.084;2023-05-19T03:51:10;8.25;83.33
66144;SHT31;52947;50.842;6.084;2023-05-19T03:53:39;8.42;82.96
66144;SHT31;52947;50.842;6.084;2023-05-19T03:56:09;8.69;82.12
66144;SHT31;52947;50.842;6.084;2023-05-19T03:58:39;9.03;81.49
66144;SHT31;52947;50.842;6.084;2023-05-19T04:01:09;9.27;80.79
66144;SHT31;52947;50.842;6.084;2023-05-19T04:03:37;8.64;80.15
66144;SHT31;52947;50.842;6.084;2023-05-19T04:06:07;8.83;81.70
66144;SHT31;52947;50.842;6.084;2023-05-19T04:08:35;8.97;81.13
66144;SHT31;52947;50.842;6.084;2023-05-19T04:11:03;9.07;80.70
66144;SHT31;52947;50.842;6.084;2023-05-19T04:13:33;9.15;80.61
66144;SHT31;52947;50.842;6.084;2023-05-19T04:16:01;9.44;79.88
66144;SHT31;52947;50.842;6.084;2023-05-19T04:18:29;9.81;81.46
66144;SHT31;52947;50.842;6.084;2023-05-19T04:20:57;9.82;80.07
66144;SHT31;52947;50.842;6.084;2023-05-19T04:23:25;9.26;81.23
66144;SHT31;52947;50.842;6.084;2023-05-19T04:25:53;9.15;81.46
66144;SHT31;52947;50.842;6.084;2023-05-19T04:28:22;8.85;80.62
66144;SHT31;52947;50.842;6.084;2023-05-19T04:30:52;8.95;81.16
66144;SHT31;52947;50.842;6.084;2023-05-19T04:33:20;9.31;81.50
66144;SHT31;52947;50.842;6.084;2023-05-19T04:35:48;9.44;80.72
66144;SHT31;52947;50.842;6.084;2023-05-19T04:38:18;9.43;79.99
66144;SHT31;52947;50.842;6.084;2023-05-19T04:40:48;9.44;80.06
66144;SHT31;52947;50.842;6.084;2023-05-19T04:43:17;9.58;80.16
66144;SHT31;52947;50.842;6.084;2023-05-19T04:45:48;9.52;79.91
66144;SHT31;52947;50.842;6.084;2023-05-19T04:48:19;9.81;79.70
66144;SHT31;52947;50.842;6.084;2023-05-19T04:50:49;9.67;80.26
66144;SHT31;52947;50.842;6.084;2023-05-19T04:53:17;9.92;80.03
66144;SHT31;52947;50.842;6.084;2023-05-19T04:55:47;10.42;79.17
66144;SHT31;52947;50.842;6.084;2023-05-19T04:58:16;10.94;77.42
66144;SHT31;52947;50.842;6.084;2023-05-19T05:00:44;11.18;76.60
66144;SHT31;52947;50.842;6.084;2023-05-19T05:03:12;11.87;75.17
66144;SHT31;52947;50.842;6.084;2023-05-19T05:05:43;12.43;73.28
66144;SHT31;52947;50.842;6.084;2023-05-19T05:08:11;12.88;72.43
66144;SHT31;52947;50.842;6.084;2023-05-19T05:10:41;13.60;70.61
66144;SHT31;52947;50.842;6.084;2023-05-19T05:13:10;13.88;69.36
66144;SHT31;52947;50.842;6.084;2023-05-19T05:15:38;13.47;69.95
66144;SHT31;52947;50.842;6.084;2023-05-19T05:18:07;13.87;68.09
66144;SHT31;52947;50.842;6.084;2023-05-19T05:20:36;14.48;67.38
66144;SHT31;52947;50.842;6.084;2023-05-19T05:23:06;15.07;67.23
66144;SHT31;52947;50.842;6.084;2023-05-19T05:25:37;15.08;64.86
66144;SHT31;52947;50.842;6.084;2023-05-19T05:28:05;15.08;65.75
66144;SHT31;52947;50.842;6.084;2023-05-19T05:30:35;15.30;66.24
66144;SHT31;52947;50.842;6.084;2023-05-19T05:33:06;15.43;63.62
66144;SHT31;52947;50.842;6.084;2023-05-19T05:35:37;15.94;63.58
66144;SHT31;52947;50.842;6.084;2023-05-19T05:38:08;16.52;62.32
66144;SHT31;52947;50.842;6.084;2023-05-19T05:40:37;16.88;60.82
66144;SHT31;52947;50.842;6.084;2023-05-19T05:43:05;16.36;61.17
66144;SHT31;52947;50.842;6.084;2023-05-19T05:45:38;16.64;61.44
66144;SHT31;52947;50.842;6.084;2023-05-19T05:48:07;16.55;60.26
66144;SHT31;52947;50.842;6.084;2023-05-19T05:50:36;17.28;59.92
66144;SHT31;52947;50.842;6.084;2023-05-19T05:53:05;18.18;57.18
66144;SHT31;52947;50.842;6.084;2023-05-19T05:55:38;18.81;55.64
66144;SHT31;52947;50.842;6.084;2023-05-19T05:58:06;19.06;55.68
66144;SHT31;52947;50.842;6.084;2023-05-19T06:00:36;18.98;55.13
66144;SHT31;52947;50.842;6.084;2023-05-19T06:03:04;19.60;54.61
66144;SHT31;52947;50.842;6.084;2023-05-19T06:05:33;19.81;53.87
66144;SHT31;52947;50.842;6.084;2023-05-19T06:08:01;20.38;51.68
66144;SHT31;52947;50.842;6.084;2023-05-19T06:10:28;19.97;52.71
66144;SHT31;52947;50.842;6.084;2023-05-19T06:12:59;20.97;51.45
66144;SHT31;52947;50.842;6.084;2023-05-19T06:15:27;20.82;51.28
66144;SHT31;52947;50.842;6.084;2023-05-19T06:18:09;21.73;50.13
66144;SHT31;52947;50.842;6.084;2023-05-19T06:20:38;22.76;48.08
66144;SHT31;52947;50.842;6.084;2023-05-19T06:23:06;23.35;46.19
66144;SHT31;52947;50.842;6.084;2023-05-19T06:25:34;23.95;45.83
66144;SHT31;52947;50.842;6.084;2023-05-19T06:28:05;24.53;45.46
66144;SHT31;52947;50.842;6.084;2023-05-19T06:30:33;24.53;44.12
66144;SHT31;52947;50.842;6.084;2023-05-19T06:33:15;24.40;43.99
66144;SHT31;52947;50.842;6.084;2023-05-19T06:35:43;24.68;45.06
66144;SHT31;52947;50.842;6.084;2023-05-19T06:38:13;24.94;43.76
66144;SHT31;52947;50.842;6.084;2023-05-19T06:40:41;25.26;44.09
66144;SHT31;52947;50.842;6.084;2023-05-19T06:43:11;25.71;42.82
66144;SHT31;52947;50.842;6.084;2023-05-19T06:45:53;26.00;42.19
66144;SHT31;52947;50.842;6.084;2023-05-19T06:48:23;27.12;40.44
66144;SHT31;52947;50.842;6.084;2023-05-19T06:50:51;27.40;39.76
66144;SHT31;52947;50.842;6.084;2023-05-19T06:53:19;26.95;39.34
66144;SHT31;52947;50.842;6.084;2023-05-19T06:55:50;26.52;39.73
66144;SHT31;52947;50.842;6.084;2023-05-19T06:58:29;26.47;39.96
66144;SHT31;52947;50.842;6.084;2023-05-19T07:00:58;26.35;40.00
66144;SHT31;52947;50.842;6.084;2023-05-19T07:03:31;27.10;39.83
66144;SHT31;52947;50.842;6.084;2023-05-19T07:05:59;26.35;40.07
66144;SHT31;52947;50.842;6.084;2023-05-19T07:08:27;26.21;38.91
66144;SHT31;52947;50.842;6.084;2023-05-19T07:10:58;27.02;40.02
66144;SHT31;52947;50.842;6.084;2023-05-19T07:13:28;26.82;38.32
66144;SHT31;52947;50.842;6.084;2023-05-19T07:15:58;24.69;40.75
66144;SHT31;52947;50.842;6.084;2023-05-19T07:18:27;26.08;40.60
66144;SHT31;52947;50.842;6.084;2023-05-19T07:20:57;26.73;39.78
66144;SHT31;52947;50.842;6.084;2023-05-19T07:23:25;25.50;40.23
66144;SHT31;52947;50.842;6.084;2023-05-19T07:25:53;26.21;39.41
66144;SHT31;52947;50.842;6.084;2023-05-19T07:28:22;26.72;39.15
66144;SHT31;52947;50.842;6.084;2023-05-19T07:30:52;26.80;38.80
66144;SHT31;52947;50.842;6.084;2023-05-19T07:33:20;26.37;38.89
66144;SHT31;52947;50.842;6.084;2023-05-19T07:35:48;26.63;39.06
66144;SHT31;52947;50.842;6.084;2023-05-19T07:38:15;25.74;39.03
66144;SHT31;52947;50.842;6.084;2023-05-19T07:40:43;25.98;39.39
66144;SHT31;52947;50.842;6.084;2023-05-19T07:43:11;25.67;39.81
66144;SHT31;52947;50.842;6.084;2023-05-19T07:45:39;25.26;40.60
66144;SHT31;52947;50.842;6.084;2023-05-19T07:48:09;24.98;40.37
66144;SHT31;52947;50.842;6.084;2023-05-19T07:50:37;25.93;39.85
66144;SHT31;52947;50.842;6.084;2023-05-19T07:53:04;26.92;39.55
66144;SHT31;52947;50.842;6.084;2023-05-19T07:55:32;27.60;37.68
66144;SHT31;52947;50.842;6.084;2023-05-19T07:58:00;26.96;38.66
66144;SHT31;52947;50.842;6.084;2023-05-19T08:00:28;25.50;40.88
66144;SHT31;52947;50.842;6.084;2023-05-19T08:02:56;26.25;39.19
66144;SHT31;52947;50.842;6.084;2023-05-19T08:05:26;24.36;41.36
66144;SHT31;52947;50.842;6.084;2023-05-19T08:07:55;25.58;40.37
66144;SHT31;52947;50.842;6.084;2023-05-19T08:10:23;26.85;38.71
66144;SHT31;52947;50.842;6.084;2023-05-19T08:12:51;27.10;38.27
66144;SHT31;52947;50.842;6.084;2023-05-19T08:15:18;27.06;38.09
66144;SHT31;52947;50.842;6.084;2023-05-19T08:17:47;25.60;40.97
66144;SHT31;52947;50.842;6.084;2023-05-19T08:20:15;25.96;40.30
66144;SHT31;52947;50.842;6.084;2023-05-19T08:22:44;25.38;41.58
66144;SHT31;52947;50.842;6.084;2023-05-19T08:25:12;26.34;39.58
66144;SHT31;52947;50.842;6.084;2023-05-19T08:27:40;27.31;38.72
66144;SHT31;52947;50.842;6.084;2023-05-19T08:30:09;27.13;38.20
66144;SHT31;52947;50.842;6.084;2023-05-19T08:32:37;26.41;39.43
66144;SHT31;52947;50.842;6.084;2023-05-19T08:35:05;26.90;38.91
66144;SHT31;52947;50.842;6.084;2023-05-19T08:37:34;26.88;39.03
66144;SHT31;52947;50.842;6.084;2023-05-19T08:40:04;25.83;40.66
66144;SHT31;52947;50.842;6.084;2023-05-19T08:42:32;26.25;40.60
66144;SHT31;52947;50.842;6.084;2023-05-19T08:45:01;26.41;39.79
66144;SHT31;52947;50.842;6.084;2023-05-19T08:47:30;26.88;38.77
66144;SHT31;52947;50.842;6.084;2023-05-19T08:50:03;26.27;40.11
66144;SHT31;52947;50.842;6.084;2023-05-19T08:52:40;25.42;41.07
66144;SHT31;52947;50.842;6.084;2023-05-19T08:55:26;25.30;41.14
66144;SHT31;52947;50.842;6.084;2023-05-19T08:57:57;25.25;41.32
66144;SHT31;52947;50.842;6.084;2023-05-19T09:00:25;24.53;42.66
66144;SHT31;52947;50.842;6.084;2023-05-19T09:02:53;25.87;41.01
66144;SHT31;52947;50.842;6.084;2023-05-19T09:05:42;23.15;44.49
66144;SHT31;52947;50.842;6.084;2023-05-19T09:08:11;24.07;44.02
66144;SHT31;52947;50.842;6.084;2023-05-19T09:10:40;22.78;44.96
66144;SHT31;52947;50.842;6.084;2023-05-19T09:13:08;23.34;44.92
66144;SHT31;52947;50.842;6.084;2023-05-19T09:15:38;24.36;43.75
66144;SHT31;52947;50.842;6.084;2023-05-19T09:18:07;25.30;41.36
66144;SHT31;52947;50.842;6.084;2023-05-19T09:20:37;24.78;41.86
66144;SHT31;52947;50.842;6.084;2023-05-19T09:23:06;24.99;41.66
66144;SHT31;52947;50.842;6.084;2023-05-19T09:25:34;24.56;42.88
66144;SHT31;52947;50.842;6.084;2023-05-19T09:28:07;21.75;45.79
66144;SHT31;52947;50.842;6.084;2023-05-19T09:30:35;21.30;46.88
66144;SHT31;52947;50.842;6.084;2023-05-19T09:33:03;21.94;45.18
66144;SHT31;52947;50.842;6.084;2023-05-19T09:35:35;21.55;46.83
66144;SHT31;52947;50.842;6.084;2023-05-19T09:38:03;21.75;46.64
66144;SHT31;52947;50.842;6.084;2023-05-19T09:40:32;19.88;50.28
66144;SHT31;52947;50.842;6.084;2023-05-19T09:43:04;21.19;49.33
66144;SHT31;52947;50.842;6.084;2023-05-19T09:45:34;20.04;51.00
66144;SHT31;52947;50.842;6.084;2023-05-19T09:48:02;20.28;50.11
66144;SHT31;52947;50.842;6.084;2023-05-19T09:50:31;22.15;48.02
66144;SHT31;52947;50.842;6.084;2023-05-19T09:52:59;22.84;45.90
66144;SHT31;52947;50.842;6.084;2023-05-19T09:55:28;20.61;48.90
66144;SHT31;52947;50.842;6.084;2023-05-19T09:57:58;19.57;50.81
66144;SHT31;52947;50.842;6.084;2023-05-19T10:00:31;20.62;49.00
66144;SHT31;52947;50.842;6.084;2023-05-19T10:03:02;20.72;49.05
66144;SHT31;52947;50.842;6.084;2023-05-19T10:05:31;21.13;48.19
66144;SHT31;52947;50.842;6.084;2023-05-19T10:08:00;22.45;46.19
66144;SHT31;52947;50.842;6.084;2023-05-19T10:10:32;21.89;46.31
66144;SHT31;52947;50.842;6.084;2023-05-19T10:13:01;21.69;48.14
66144;SHT31;52947;50.842;6.084;2023-05-19T10:15:31;22.29;45.42
66144;SHT31;52947;50.842;6.084;2023-05-19T10:18:14;20.65;48.62
66144;SHT31;52947;50.842;6.084;2023-05-19T10:20:44;20.76;47.66
66144;SHT31;52947;50.842;6.084;2023-05-19T10:23:13;21.58;46.77
66144;SHT31;52947;50.842;6.084;2023-05-19T10:25:41;21.53;47.56
66144;SHT31;52947;50.842;6.084;2023-05-19T10:28:13;20.65;47.51
66144;SHT31;52947;50.842;6.084;2023-05-19T10:30:47;22.13;46.25
66144;SHT31;52947;50.842;6.084;2023-05-19T10:33:18;22.12;45.99
66144;SHT31;52947;50.842;6.084;2023-05-19T10:36:01;20.97;47.01
66144;SHT31;52947;50.842;6.084;2023-05-19T10:38:40;21.55;47.11
66144;SHT31;52947;50.842;6.084;2023-05-19T10:41:15;23.31;44.04
66144;SHT31;52947;50.842;6.084;2023-05-19T10:43:53;21.69;46.49
66144;SHT31;52947;50.842;6.084;2023-05-19T10:46:25;21.48;47.43
66144;SHT31;52947;50.842;6.084;2023-05-19T10:48:53;21.20;46.92
66144;SHT31;52947;50.842;6.084;2023-05-19T10:51:27;22.32;45.79
66144;SHT31;52947;50.842;6.084;2023-05-19T10:53:57;21.61;46.29
66144;SHT31;52947;50.842;6.084;2023-05-19T10:56:29;21.89;46.91
66144;SHT31;52947;50.842;6.084;2023-05-19T10:59:00;21.16;47.59
66144;SHT31;52947;50.842;6.084;2023-05-19T11:01:31;21.27;46.80
66144;SHT31;52947;50.842;6.084;2023-05-19T11:04:04;20.57;47.78
66144;SHT31;52947;50.842;6.084;2023-05-19T11:06:33;21.99;45.72
66144;SHT31;52947;50.842;6.084;2023-05-19T11:09:10;22.16;45.52
66144;SHT31;52947;50.842;6.084;2023-05-19T11:11:44;21.44;45.55
66144;SHT31;52947;50.842;6.084;2023-05-19T11:14:13;21.82;46.46
66144;SHT31;52947;50.842;6.084;2023-05-19T11:16:45;21.07;46.92
66144;SHT31;52947;50.842;6.084;2023-05-19T11:19:17;19.39;50.30
66144;SHT31;52947;50.842;6.084;2023-05-19T11:21:47;20.15;49.05
66144;SHT31;52947;50.842;6.084;2023-05-19T11:24:35;21.31;47.78
66144;SHT31;52947;50.842;6.084;2023-05-19T11:27:24;20.87;47.23
66144;SHT31;52947;50.842;6.084;2023-05-19T11:29:54;22.46;45.63
66144;SHT31;52947;50.842;6.084;2023-05-19T11:32:26;24.33;42.98
66144;SHT31;52947;50.842;6.084;2023-05-19T11:34:55;24.85;41.29
66144;SHT31;52947;50.842;6.084;2023-05-19T11:37:23;22.84;43.60
66144;SHT31;52947;50.842;6.084;2023-05-19T11:39:51;23.49;42.93
66144;SHT31;52947;50.842;6.084;2023-05-19T11:42:19;22.67;43.61
66144;SHT31;52947;50.842;6.084;2023-05-19T11:44:48;21.98;43.22
66144;SHT31;52947;50.842;6.084;2023-05-19T11:47:16;21.61;42.72
66144;SHT31;52947;50.842;6.084;2023-05-19T11:49:46;21.03;43.86
66144;SHT31;52947;50.842;6.084;2023-05-19T11:52:15;22.56;42.28
66144;SHT31;52947;50.842;6.084;2023-05-19T11:54:47;22.52;43.89
66144;SHT31;52947;50.842;6.084;2023-05-19T11:57:15;21.78;44.58
66144;SHT31;52947;50.842;6.084;2023-05-19T11:59:43;20.45;47.47
66144;SHT31;52947;50.842;6.084;2023-05-19T12:02:16;21.75;45.13
66144;SHT31;52947;50.842;6.084;2023-05-19T12:04:45;21.17;46.20
66144;SHT31;52947;50.842;6.084;2023-05-19T12:07:14;21.79;44.39
66144;SHT31;52947;50.842;6.084;2023-05-19T12:09:44;21.43;45.08
66144;SHT31;52947;50.842;6.084;2023-05-19T12:12:13;20.76;44.59
66144;SHT31;52947;50.842;6.084;2023-05-19T12:14:42;20.69;44.53
66144;SHT31;52947;50.842;6.084;2023-05-19T12:17:11;21.94;43.15
66144;SHT31;52947;50.842;6.084;2023-05-19T12:19:39;23.18;41.96
66144;SHT31;52947;50.842;6.084;2023-05-19T12:22:09;23.05;42.77
66144;SHT31;52947;50.842;6.084;2023-05-19T12:24:37;20.35;46.03
66144;SHT31;52947;50.842;6.084;2023-05-19T12:27:10;20.38;46.20
66144;SHT31;52947;50.842;6.084;2023-05-19T12:29:39;22.20;44.79
66144;SHT31;52947;50.842;6.084;2023-05-19T12:32:07;22.52;42.98
66144;SHT31;52947;50.842;6.084;2023-05-19T12:34:36;22.28;42.27
66144;SHT31;52947;50.842;6.084;2023-05-19T12:37:05;22.45;41.79
66144;SHT31;52947;50.842;6.084;2023-05-19T12:39:34;22.08;43.95
66144;SHT31;52947;50.842;6.084;2023-05-19T12:42:06;21.92;44.82
66144;SHT31;52947;50.842;6.084;2023-05-19T12:44:36;20.71;44.88
66144;SHT31;52947;50.842;6.084;2023-05-19T12:47:04;21.50;44.16
66144;SHT31;52947;50.842;6.084;2023-05-19T12:49:32;20.68;45.45
66144;SHT31;52947;50.842;6.084;2023-05-19T12:52:01;20.31;45.75
66144;SHT31;52947;50.842;6.084;2023-05-19T12:54:36;19.49;46.34
66144;SHT31;52947;50.842;6.084;2023-05-19T12:57:04;20.21;46.05
66144;SHT31;52947;50.842;6.084;2023-05-19T12:59:33;20.44;45.86
66144;SHT31;52947;50.842;6.084;2023-05-19T13:02:05;21.61;43.60
66144;SHT31;52947;50.842;6.084;2023-05-19T13:04:33;21.48;44.45
66144;SHT31;52947;50.842;6.084;2023-05-19T13:07:01;21.69;44.53
66144;SHT31;52947;50.842;6.084;2023-05-19T13:09:29;21.20;45.16
66144;SHT31;52947;50.842;6.084;2023-05-19T13:12:02;19.62;47.20
66144;SHT31;52947;50.842;6.084;2023-05-19T13:14:30;18.91;48.53
66144;SHT31;52947;50.842;6.084;2023-05-19T13:16:58;19.62;47.96
66144;SHT31;52947;50.842;6.084;2023-05-19T13:19:26;19.63;46.86
66144;SHT31;52947;50.842;6.084;2023-05-19T13:21:54;20.20;45.60
66144;SHT31;52947;50.842;6.084;2023-05-19T13:24:22;20.96;44.68
66144;SHT31;52947;50.842;6.084;2023-05-19T13:26:50;21.59;44.57
66144;SHT31;52947;50.842;6.084;2023-05-19T13:29:20;21.11;46.72
66144;SHT31;52947;50.842;6.084;2023-05-19T13:31:48;20.89;46.56
66144;SHT31;52947;50.842;6.084;2023-05-19T13:34:16;20.65;46.39
66144;SHT31;52947;50.842;6.084;2023-05-19T13:36:45;20.24;47.28
66144;SHT31;52947;50.842;6.084;2023-05-19T13:39:14;20.31;47.36
66144;SHT31;52947;50.842;6.084;2023-05-19T13:41:42;20.00;48.04
66144;SHT31;52947;50.842;6.084;2023-05-19T13:44:10;20.48;47.57
66144;SHT31;52947;50.842;6.084;2023-05-19T13:46:39;21.20;46.18
66144;SHT31;52947;50.842;6.084;2023-05-19T13:49:11;21.50;46.52
66144;SHT31;52947;50.842;6.084;2023-05-19T13:51:41;21.14;45.30
66144;SHT31;52947;50.842;6.084;2023-05-19T13:54:09;21.04;46.62
66144;SHT31;52947;50.842;6.084;2023-05-19T13:56:38;21.04;45.44
66144;SHT31;52947;50.842;6.084;2023-05-19T13:59:06;21.28;44.75
66144;SHT31;52947;50.842;6.084;2023-05-19T14:01:34;20.72;46.24
66144;SHT31;52947;50.842;6.084;2023-05-19T14:04:04;20.45;47.23
66144;SHT31;52947;50.842;6.084;2023-05-19T14:06:32;20.41;45.97
66144;SHT31;52947;50.842;6.084;2023-05-19T14:09:00;19.87;46.48
66144;SHT31;52947;50.842;6.084;2023-05-19T14:11:28;19.56;48.89
66144;SHT31;52947;50.842;6.084;2023-05-19T14:13:56;19.94;48.24
66144;SHT31;52947;50.842;6.084;2023-05-19T14:16:24;19.77;48.36
66144;SHT31;52947;50.842;6.084;2023-05-19T14:18:54;19.85;49.14
66144;SHT31;52947;50.842;6.084;2023-05-19T14:21:23;19.66;48.73
66144;SHT31;52947;50.842;6.084;2023-05-19T14:23:52;19.78;49.51
66144;SHT31;52947;50.842;6.084;2023-05-19T14:26:20;20.11;49.51
66144;SHT31;52947;50.842;6.084;2023-05-19T14:28:48;20.11;48.64
66144;SHT31;52947;50.842;6.084;2023-05-19T14:31:16;19.78;48.23
66144;SHT31;52947;50.842;6.084;2023-05-19T14:33:44;19.83;48.93
66144;SHT31;52947;50.842;6.084;2023-05-19T14:36:12;19.54;48.92
66144;SHT31;52947;50.842;6.084;2023-05-19T14:38:41;19.46;49.01
66144;SHT31;52947;50.842;6.084;2023-05-19T14:41:09;19.34;49.80
66144;SHT31;52947;50.842;6.084;2023-05-19T14:43:36;19.09;50.03
66144;SHT31;52947;50.842;6.084;2023-05-19T14:46:07;19.05;49.23
66144;SHT31;52947;50.842;6.084;2023-05-19T14:48:34;19.49;49.31
66144;SHT31;52947;50.842;6.084;2023-05-19T14:51:03;19.52;49.56
66144;SHT31;52947;50.842;6.084;2023-05-19T14:53:31;19.80;48.92
66144;SHT31;52947;50.842;6.084;2023-05-19T14:56:00;19.90;49.00
66144;SHT31;52947;50.842;6.084;2023-05-19T14:58:31;19.57;49.38
66144;SHT31;52947;50.842;6.084;2023-05-19T15:00:59;19.18;50.14
66144;SHT31;52947;50.842;6.084;2023-05-19T15:03:27;18.98;49.90
66144;SHT31;52947;50.842;6.084;2023-05-19T15:05:55;18.92;49.96
66144;SHT31;52947;50.842;6.084;2023-05-19T15:08:23;18.99;50.38
66144;SHT31;52947;50.842;6.084;2023-05-19T15:10:50;19.36;50.43
66144;SHT31;52947;50.842;6.084;2023-05-19T15:13:20;19.15;49.16
66144;SHT31;52947;50.842;6.084;2023-05-19T15:15:47;19.24;48.68
66144;SHT31;52947;50.842;6.084;2023-05-19T15:18:15;19.18;48.36
66144;SHT31;52947;50.842;6.084;2023-05-19T15:20:44;19.33;49.02
66144;SHT31;52947;50.842;6.084;2023-05-19T15:23:12;19.42;49.39
66144;SHT31;52947;50.842;6.084;2023-05-19T15:25:40;19.49;48.47
66144;SHT31;52947;50.842;6.084;2023-05-19T15:28:08;19.59;48.45
66144;SHT31;52947;50.842;6.084;2023-05-19T15:30:37;19.63;49.45
66144;SHT31;52947;50.842;6.084;2023-05-19T15:33:05;19.77;48.59
66144;SHT31;52947;50.842;6.084;2023-05-19T15:35:33;19.70;49.54
66144;SHT31;52947;50.842;6.084;2023-05-19T15:38:01;19.64;48.10
66144;SHT31;52947;50.842;6.084;2023-05-19T15:40:31;18.95;48.95
66144;SHT31;52947;50.842;6.084;2023-05-19T15:43:00;18.68;49.97
66144;SHT31;52947;50.842;6.084;2023-05-19T15:45:28;18.92;50.20
66144;SHT31;52947;50.842;6.084;2023-05-19T15:47:57;18.95;49.91
66144;SHT31;52947;50.842;6.084;2023-05-19T15:50:25;19.02;49.92
66144;SHT31;52947;50.842;6.084;2023-05-19T15:52:53;19.09;50.49
66144;SHT31;52947;50.842;6.084;2023-05-19T15:55:21;18.79;49.60
66144;SHT31;52947;50.842;6.084;2023-05-19T15:57:49;18.73;49.67